createdAt,value
2019-03-24T00:02:13.090Z,8.50
2019-03-24T00:04:46.746Z,8.47
2019-03-24T00:07:21.695Z,8.50
2019-03-24T00:09:53.784Z,8.40
2019-03-24T00:12:29.435Z,8.55
2019-03-24T00:15:02.884Z,8.53
2019-03-24T00:17:38.039Z,8.49
2019-03-24T00:20:13.562Z,8.58
2019-03-24T00:22:47.854Z,8.42
2019-03-24T00:25:21.479Z,8.45
2019-03-24T00:27:57.121Z,8.26
2019-03-24T00:30:31.519Z,8.28
2019-03-24T00:33:07.770Z,8.26
2019-03-24T00:35:42.127Z,8.26
2019-03-24T00:38:14.479Z,8.22
2019-03-24T00:40:47.233Z,8.32
2019-03-24T00:43:20.709Z,8.27
2019-03-24T00:45:56.183Z,8.23
2019-03-24T00:48:30.777Z,8.16
2019-03-24T00:51:03.820Z,8.06
2019-03-24T00:53:36.914Z,8.01
2019-03-24T00:56:12.542Z,8.19
2019-03-24T00:58:48.546Z,8.06
2019-03-24T01:01:20.907Z,7.87
2019-03-24T01:03:55.278Z,7.95
2019-03-24T01:06:29.577Z,7.63
2019-03-24T01:09:02.111Z,7.74
2019-03-24T01:11:35.009Z,7.83
2019-03-24T01:14:09.780Z,7.73
2019-03-24T01:16:41.981Z,7.79
2019-03-24T01:19:14.590Z,7.81
2019-03-24T01:21:49.008Z,7.83
2019-03-24T01:24:21.176Z,7.83
2019-03-24T01:26:53.976Z,7.73
2019-03-24T01:29:27.010Z,7.74
2019-03-24T01:32:02.776Z,7.83
2019-03-24T01:34:37.016Z,7.82
2019-03-24T01:37:11.197Z,7.57
2019-03-24T01:39:44.012Z,7.57
2019-03-24T01:42:19.773Z,7.53
2019-03-24T01:44:53.215Z,7.56
2019-03-24T01:47:26.205Z,7.47
2019-03-24T01:50:00.780Z,7.28
2019-03-24T01:52:32.688Z,7.30
2019-03-24T01:55:06.352Z,7.38
2019-03-24T01:57:43.465Z,7.47
2019-03-24T02:00:15.381Z,7.40
2019-03-24T02:02:49.496Z,7.53
2019-03-24T02:05:23.255Z,7.38
2019-03-24T02:07:57.938Z,7.43
2019-03-24T02:10:31.277Z,7.44
2019-03-24T02:13:04.072Z,7.46
2019-03-24T02:15:37.300Z,7.48
2019-03-24T02:18:11.187Z,7.46
2019-03-24T02:20:46.870Z,7.54
2019-03-24T02:23:22.425Z,7.44
2019-03-24T02:25:55.795Z,7.52
2019-03-24T02:28:29.565Z,7.53
2019-03-24T02:31:03.566Z,7.53
2019-03-24T02:33:35.728Z,7.52
2019-03-24T02:36:11.734Z,7.51
2019-03-24T02:38:47.227Z,7.56
2019-03-24T02:41:18.984Z,7.52
2019-03-24T02:43:53.447Z,7.52
2019-03-24T02:46:26.363Z,7.48
2019-03-24T02:49:00.377Z,7.54
2019-03-24T02:51:34.502Z,7.45
2019-03-24T02:54:06.716Z,7.38
2019-03-24T02:56:38.480Z,7.35
2019-03-24T02:59:11.584Z,7.45
2019-03-24T03:01:46.440Z,7.45
2019-03-24T03:04:20.131Z,7.39
2019-03-24T03:06:53.250Z,7.42
2019-03-24T03:09:27.215Z,7.34
2019-03-24T03:11:59.547Z,7.38
2019-03-24T03:14:33.751Z,7.39
2019-03-24T03:17:07.152Z,7.42
2019-03-24T03:19:40.438Z,7.40
2019-03-24T03:22:14.639Z,7.50
2019-03-24T03:24:47.487Z,7.47
2019-03-24T03:27:21.628Z,7.42
2019-03-24T03:29:53.553Z,7.41
2019-03-24T03:32:25.784Z,7.28
2019-03-24T03:35:01.076Z,7.27
2019-03-24T03:37:34.070Z,7.25
2019-03-24T03:40:09.571Z,7.27
2019-03-24T03:42:43.442Z,7.28
2019-03-24T03:45:20.334Z,7.29
2019-03-24T03:47:56.010Z,7.24
2019-03-24T03:50:30.212Z,7.28
2019-03-24T03:53:04.807Z,7.23
2019-03-24T03:55:37.306Z,7.17
2019-03-24T03:58:12.880Z,7.28
2019-03-24T04:00:49.256Z,7.27
2019-03-24T04:03:23.867Z,7.31
2019-03-24T04:05:57.842Z,7.45
2019-03-24T04:08:30.633Z,7.27
2019-03-24T04:11:05.121Z,7.10
2019-03-24T04:13:39.086Z,7.06
2019-03-24T04:16:12.267Z,6.91
2019-03-24T04:18:45.837Z,6.73
2019-03-24T04:21:18.297Z,6.60
2019-03-24T04:23:55.222Z,6.63
2019-03-24T04:26:29.022Z,6.62
2019-03-24T04:29:03.347Z,6.65
2019-03-24T04:31:36.865Z,6.79
2019-03-24T04:34:10.508Z,6.71
2019-03-24T04:36:43.876Z,6.76
2019-03-24T04:39:15.623Z,6.95
2019-03-24T04:41:47.958Z,6.91
2019-03-24T04:44:20.797Z,6.88
2019-03-24T04:46:55.197Z,6.87
2019-03-24T04:49:27.102Z,6.81
2019-03-24T04:52:01.604Z,6.74
2019-03-24T04:54:36.100Z,6.72
2019-03-24T04:57:12.320Z,6.62
2019-03-24T04:59:47.648Z,6.60
2019-03-24T05:02:22.025Z,6.71
2019-03-24T05:04:58.300Z,6.70
2019-03-24T05:07:30.278Z,6.65
2019-03-24T05:10:04.313Z,6.58
2019-03-24T05:12:39.974Z,6.51
2019-03-24T05:15:14.213Z,6.43
2019-03-24T05:17:49.605Z,6.31
2019-03-24T05:20:21.555Z,6.08
2019-03-24T05:22:56.830Z,6.13
2019-03-24T05:25:31.718Z,6.07
2019-03-24T05:28:07.638Z,5.96
2019-03-24T05:30:42.803Z,5.88
2019-03-24T05:33:15.123Z,5.91
2019-03-24T05:35:48.840Z,6.07
2019-03-24T05:38:21.603Z,6.17
2019-03-24T05:40:54.568Z,6.16
2019-03-24T05:43:27.657Z,6.15
2019-03-24T05:46:00.238Z,6.23
2019-03-24T05:48:33.361Z,6.31
2019-03-24T05:51:07.799Z,6.34
2019-03-24T05:53:40.804Z,6.28
2019-03-24T05:56:14.163Z,6.39
2019-03-24T05:58:48.913Z,6.51
2019-03-24T06:01:22.652Z,6.42
2019-03-24T06:03:55.429Z,6.49
2019-03-24T06:06:28.640Z,6.60
2019-03-24T06:09:04.985Z,6.68
2019-03-24T06:11:40.881Z,6.70
2019-03-24T06:14:15.451Z,6.83
2019-03-24T06:16:51.913Z,6.92
2019-03-24T06:19:28.617Z,7.07
2019-03-24T06:22:02.795Z,7.15
2019-03-24T06:24:37.771Z,7.20
2019-03-24T06:27:11.725Z,7.18
2019-03-24T06:29:45.614Z,7.23
2019-03-24T06:32:20.392Z,7.23
2019-03-24T06:34:56.342Z,7.29
2019-03-24T06:37:32.924Z,7.51
2019-03-24T06:40:11.915Z,7.60
2019-03-24T06:42:50.620Z,7.69
2019-03-24T06:45:29.009Z,7.70
2019-03-24T06:48:05.632Z,7.76
2019-03-24T06:50:41.197Z,7.81
2019-03-24T06:53:15.188Z,7.87
2019-03-24T06:55:54.200Z,7.95
2019-03-24T06:58:29.178Z,8.01
2019-03-24T07:01:07.148Z,8.09
2019-03-24T07:03:40.134Z,8.34
2019-03-24T07:06:13.189Z,8.51
2019-03-24T07:08:46.874Z,8.76
2019-03-24T07:11:20.118Z,9.07
2019-03-24T07:13:55.923Z,9.34
2019-03-24T07:16:30.196Z,9.45
2019-03-24T07:19:03.949Z,9.67
2019-03-24T07:21:39.035Z,9.82
2019-03-24T07:24:12.632Z,9.97
2019-03-24T07:26:53.100Z,10.22
2019-03-24T07:29:29.662Z,10.27
2019-03-24T07:32:05.935Z,10.34
2019-03-24T07:34:43.158Z,10.42
2019-03-24T07:37:15.930Z,10.55
2019-03-24T07:39:50.538Z,10.59
2019-03-24T07:42:24.801Z,10.72
2019-03-24T07:44:58.557Z,10.84
2019-03-24T07:47:33.743Z,10.79
2019-03-24T07:50:11.945Z,10.90
2019-03-24T07:52:45.209Z,10.86
2019-03-24T07:55:19.394Z,10.92
2019-03-24T07:57:52.085Z,10.91
2019-03-24T08:00:34.206Z,11.00
2019-03-24T08:03:09.482Z,11.03
2019-03-24T08:05:44.183Z,11.09
2019-03-24T08:08:16.531Z,11.37
2019-03-24T08:10:52.800Z,11.31
2019-03-24T08:13:28.505Z,11.38
2019-03-24T08:16:05.349Z,11.46
2019-03-24T08:18:41.049Z,11.62
2019-03-24T08:21:13.807Z,11.83
2019-03-24T08:23:46.444Z,12.05
2019-03-24T08:26:19.473Z,12.21
2019-03-24T08:28:54.785Z,12.12
2019-03-24T08:31:28.805Z,12.29
2019-03-24T08:34:06.234Z,12.33
2019-03-24T08:36:43.178Z,12.29
2019-03-24T08:39:17.172Z,12.40
2019-03-24T08:41:53.369Z,12.54
2019-03-24T08:44:30.847Z,12.39
2019-03-24T08:47:04.775Z,12.59
2019-03-24T08:49:40.483Z,12.77
2019-03-24T08:52:19.589Z,12.84
2019-03-24T08:54:59.902Z,12.77
2019-03-24T08:57:35.747Z,12.87
2019-03-24T09:00:11.159Z,13.03
2019-03-24T09:02:46.179Z,13.06
2019-03-24T09:05:25.998Z,13.20
2019-03-24T09:08:02.860Z,13.33
2019-03-24T09:10:38.341Z,13.46
2019-03-24T09:13:20.452Z,13.44
2019-03-24T09:15:58.138Z,13.71
2019-03-24T09:18:33.382Z,13.64
2019-03-24T09:21:05.876Z,13.93
2019-03-24T09:23:39.040Z,13.89
2019-03-24T09:26:14.440Z,13.84
2019-03-24T09:28:49.473Z,14.02
2019-03-24T09:31:23.827Z,14.00
2019-03-24T09:33:59.678Z,14.19
2019-03-24T09:36:36.878Z,14.20
2019-03-24T09:39:10.380Z,14.19
2019-03-24T09:41:45.238Z,14.51
2019-03-24T09:44:19.409Z,15.09
2019-03-24T09:46:53.635Z,14.90
2019-03-24T09:49:27.599Z,15.05
2019-03-24T09:52:03.432Z,15.16
2019-03-24T09:54:36.792Z,15.34
2019-03-24T09:57:09.445Z,15.78
2019-03-24T09:59:46.307Z,15.54
2019-03-24T10:02:19.225Z,15.52
2019-03-24T10:04:54.930Z,16.10
2019-03-24T10:07:27.314Z,16.73
2019-03-24T10:10:00.817Z,16.91
2019-03-24T10:12:34.319Z,17.50
2019-03-24T10:15:09.812Z,17.36
2019-03-24T10:17:45.069Z,17.50
2019-03-24T10:20:20.159Z,17.64
2019-03-24T10:22:56.307Z,17.39
2019-03-24T10:25:31.575Z,17.73
2019-03-24T10:28:11.751Z,17.46
2019-03-24T10:30:48.285Z,18.06
2019-03-24T10:33:25.116Z,18.13
2019-03-24T10:36:01.419Z,17.52
2019-03-24T10:38:36.378Z,17.56
2019-03-24T10:41:10.910Z,18.82
2019-03-24T10:43:47.155Z,19.13
2019-03-24T10:46:23.445Z,19.42
2019-03-24T10:49:02.116Z,18.71
2019-03-24T10:51:38.174Z,19.22
2019-03-24T10:54:15.053Z,19.45
2019-03-24T10:56:51.035Z,19.80
2019-03-24T10:59:27.657Z,19.66
2019-03-24T11:02:10.579Z,20.40
2019-03-24T11:04:48.066Z,19.46
2019-03-24T11:07:25.793Z,19.39
2019-03-24T11:10:01.815Z,19.87
2019-03-24T11:12:39.826Z,20.89
2019-03-24T11:15:15.556Z,20.47
2019-03-24T11:17:52.089Z,20.25
2019-03-24T11:20:27.280Z,19.71
2019-03-24T11:23:01.885Z,20.50
2019-03-24T11:25:40.976Z,19.98
2019-03-24T11:28:19.386Z,19.46
2019-03-24T11:30:56.637Z,19.51
2019-03-24T11:33:31.428Z,20.24
2019-03-24T11:36:08.507Z,19.88
2019-03-24T11:38:44.682Z,20.32
2019-03-24T11:41:21.926Z,19.76
2019-03-24T11:44:00.501Z,20.05
2019-03-24T11:46:35.604Z,20.41
2019-03-24T11:49:18.383Z,19.41
2019-03-24T11:51:57.841Z,19.01
2019-03-24T11:54:35.204Z,19.30
2019-03-24T11:57:12.068Z,19.19
2019-03-24T11:59:47.123Z,19.28
2019-03-24T12:02:25.918Z,19.31
2019-03-24T12:05:00.346Z,19.47
2019-03-24T12:07:40.432Z,19.42
2019-03-24T12:10:18.000Z,19.39
2019-03-24T12:12:54.568Z,19.50
2019-03-24T12:15:30.762Z,19.54
2019-03-24T12:18:08.972Z,18.99
2019-03-24T12:20:47.315Z,18.94
2019-03-24T12:23:25.492Z,19.02
2019-03-24T12:26:02.016Z,19.08
2019-03-24T12:28:35.603Z,19.22
2019-03-24T12:38:13.058Z,19.33
2019-03-24T12:40:47.697Z,19.13
2019-03-24T12:43:22.739Z,19.12
2019-03-24T12:45:57.694Z,19.38
2019-03-24T12:48:32.578Z,19.13
2019-03-24T12:51:08.992Z,19.23
2019-03-24T12:53:43.637Z,19.49
2019-03-24T12:56:16.294Z,19.05
2019-03-24T12:58:52.115Z,19.10
2019-03-24T13:01:26.176Z,19.49
2019-03-24T13:03:58.743Z,19.52
2019-03-24T13:06:33.496Z,19.18
2019-03-24T13:09:08.941Z,19.44
2019-03-24T13:11:41.175Z,19.85
2019-03-24T13:14:14.229Z,19.54
2019-03-24T13:16:47.227Z,19.77
2019-03-24T13:19:19.308Z,19.42
2019-03-24T13:21:52.061Z,19.47
2019-03-24T13:24:25.707Z,19.27
2019-03-24T13:26:59.336Z,19.48
2019-03-24T13:29:33.166Z,19.39
2019-03-24T13:32:06.363Z,19.67
2019-03-24T13:34:40.314Z,19.13
2019-03-24T13:37:13.405Z,19.36
2019-03-24T13:39:47.505Z,19.64
2019-03-24T13:42:20.407Z,19.29
2019-03-24T13:44:56.525Z,19.12
2019-03-24T13:47:31.335Z,19.25
2019-03-24T13:50:04.942Z,19.62
2019-03-24T13:52:41.211Z,20.05
2019-03-24T13:55:15.434Z,20.31
2019-03-24T13:57:48.401Z,20.35
2019-03-24T14:00:21.394Z,20.66
2019-03-24T14:02:53.223Z,19.63
2019-03-24T14:05:28.049Z,20.13
2019-03-24T14:08:00.462Z,19.99
2019-03-24T14:10:34.831Z,20.11
2019-03-24T14:13:07.480Z,19.46
2019-03-24T14:15:40.477Z,19.68
2019-03-24T14:18:14.478Z,20.20
2019-03-24T14:20:48.115Z,20.53
2019-03-24T14:23:22.379Z,20.77
2019-03-24T14:25:55.517Z,20.66
2019-03-24T14:28:28.872Z,20.72
2019-03-24T14:31:02.519Z,20.67
2019-03-24T14:33:36.150Z,19.75
2019-03-24T14:36:10.184Z,19.75
2019-03-24T14:38:43.427Z,19.65
2019-03-24T14:41:15.784Z,19.43
2019-03-24T14:43:47.588Z,19.94
2019-03-24T14:46:20.862Z,20.34
2019-03-24T14:48:54.663Z,19.75
2019-03-24T14:51:32.390Z,19.92
2019-03-24T14:54:04.627Z,19.92
2019-03-24T14:56:38.665Z,19.59
2019-03-24T14:59:11.623Z,19.68
2019-03-24T15:01:47.579Z,20.05
2019-03-24T15:04:21.731Z,20.41
2019-03-24T15:06:55.728Z,20.39
2019-03-24T15:09:29.910Z,20.57
2019-03-24T15:12:02.762Z,20.73
2019-03-24T15:14:36.798Z,20.08
2019-03-24T15:17:11.433Z,20.52
2019-03-24T15:19:58.008Z,20.74
2019-03-24T15:22:31.694Z,20.22
2019-03-24T15:25:06.129Z,20.67
2019-03-24T15:27:40.170Z,20.71
2019-03-24T15:30:13.802Z,20.65
2019-03-24T15:32:46.757Z,20.59
2019-03-24T15:35:18.787Z,20.52
2019-03-24T15:37:51.663Z,20.52
2019-03-24T15:40:25.173Z,20.77
2019-03-24T15:42:59.285Z,20.62
2019-03-24T15:45:32.073Z,20.71
2019-03-24T15:48:05.630Z,20.10
2019-03-24T15:50:39.723Z,20.30
2019-03-24T15:53:12.127Z,20.19
2019-03-24T15:55:46.777Z,20.13
2019-03-24T15:58:19.381Z,20.07
2019-03-24T16:00:53.958Z,19.73
2019-03-24T16:03:27.699Z,19.57
2019-03-24T16:06:00.904Z,19.63
2019-03-24T16:08:34.691Z,19.65
2019-03-24T16:11:07.213Z,19.68
2019-03-24T16:13:40.917Z,19.72
2019-03-24T16:16:14.301Z,19.72
2019-03-24T16:18:47.947Z,19.59
2019-03-24T16:21:27.689Z,19.58
2019-03-24T16:23:54.941Z,19.37
2019-03-24T16:26:36.321Z,18.94
2019-03-24T16:29:12.669Z,18.85
2019-03-24T16:31:45.188Z,18.60
2019-03-24T16:34:20.155Z,18.44
2019-03-24T16:36:52.678Z,18.25
2019-03-24T16:39:25.167Z,18.36
2019-03-24T16:41:59.161Z,18.08
2019-03-24T16:44:33.164Z,18.06
2019-03-24T16:47:06.115Z,17.88
2019-03-24T16:49:40.231Z,17.72
2019-03-24T16:52:14.240Z,17.71
2019-03-24T16:54:47.413Z,17.59
2019-03-24T16:57:21.224Z,17.44
2019-03-24T16:59:54.210Z,17.31
2019-03-24T17:02:28.826Z,17.12
2019-03-24T17:05:02.832Z,16.95
2019-03-24T17:07:35.757Z,16.94
2019-03-24T17:10:09.713Z,16.60
2019-03-24T17:12:43.232Z,16.51
2019-03-24T17:15:15.709Z,16.52
2019-03-24T17:17:51.451Z,16.34
2019-03-24T17:20:23.358Z,15.89
2019-03-24T17:22:57.436Z,15.73
2019-03-24T17:25:30.266Z,15.69
2019-03-24T17:28:05.095Z,15.64
2019-03-24T17:30:37.324Z,15.27
2019-03-24T17:33:09.361Z,15.45
2019-03-24T17:35:42.035Z,15.42
2019-03-24T17:38:18.683Z,15.34
2019-03-24T17:40:52.337Z,15.03
2019-03-24T17:43:25.293Z,14.92
2019-03-24T17:45:59.187Z,14.77
2019-03-24T17:48:32.550Z,14.69
2019-03-24T17:51:04.692Z,14.57
2019-03-24T17:53:36.458Z,14.55
2019-03-24T17:56:10.659Z,14.43
2019-03-24T17:58:44.543Z,14.28
2019-03-24T18:01:16.807Z,14.23
2019-03-24T18:03:50.164Z,14.10
2019-03-24T18:06:24.631Z,14.08
2019-03-24T18:08:58.584Z,14.05
2019-03-24T18:11:32.622Z,13.86
2019-03-24T18:14:05.625Z,13.72
2019-03-24T18:16:39.631Z,13.86
2019-03-24T18:19:13.648Z,13.70
2019-03-24T18:21:46.851Z,13.58
2019-03-24T18:24:19.617Z,13.59
2019-03-24T18:26:52.963Z,13.56
2019-03-24T18:29:24.892Z,13.59
2019-03-24T18:31:58.598Z,13.53
2019-03-24T18:34:32.438Z,13.42
2019-03-24T18:37:05.608Z,13.38
2019-03-24T18:39:39.950Z,13.32
2019-03-24T18:42:15.465Z,13.24
2019-03-24T18:44:47.678Z,13.11
2019-03-24T18:47:20.561Z,13.09
2019-03-24T18:49:52.721Z,12.86
2019-03-24T18:52:25.748Z,12.82
2019-03-24T18:55:01.700Z,12.94
2019-03-24T18:57:35.047Z,12.92
2019-03-24T19:00:11.498Z,12.86
2019-03-24T19:02:44.710Z,12.75
2019-03-24T19:05:17.324Z,12.62
2019-03-24T19:08:01.819Z,12.71
2019-03-24T19:10:35.643Z,12.74
2019-03-24T19:13:08.851Z,12.59
2019-03-24T19:15:41.355Z,12.66
2019-03-24T19:18:15.655Z,12.66
2019-03-24T19:20:48.213Z,12.36
2019-03-24T19:23:21.629Z,12.24
2019-03-24T19:25:54.950Z,11.83
2019-03-24T19:28:28.772Z,11.73
2019-03-24T19:31:01.896Z,11.96
2019-03-24T19:33:35.399Z,12.09
2019-03-24T19:36:08.795Z,12.03
2019-03-24T19:38:43.722Z,12.07
2019-03-24T19:41:16.045Z,11.80
2019-03-24T19:43:49.715Z,11.91
2019-03-24T19:53:12.092Z,11.87
2019-03-24T19:55:44.271Z,11.68
2019-03-24T19:58:16.278Z,11.59
2019-03-24T20:00:51.260Z,11.61
2019-03-24T20:03:26.132Z,11.45
2019-03-24T20:05:58.435Z,11.49
2019-03-24T20:08:34.256Z,11.43
2019-03-24T20:11:08.187Z,11.59
2019-03-24T20:13:42.059Z,11.57
2019-03-24T20:16:15.915Z,11.59
2019-03-24T20:18:49.151Z,11.60
2019-03-24T20:21:24.235Z,11.72
2019-03-24T20:23:57.174Z,11.49
2019-03-24T20:26:30.855Z,11.48
2019-03-24T20:29:05.103Z,11.43
2019-03-24T20:32:13.096Z,11.31
2019-03-24T20:34:47.561Z,11.31
2019-03-24T20:37:19.446Z,11.29
2019-03-24T20:39:52.570Z,11.27
2019-03-24T20:42:24.911Z,11.26
2019-03-24T20:44:58.982Z,11.31
2019-03-24T20:47:33.834Z,11.30
2019-03-24T20:50:08.810Z,11.52
2019-03-24T20:52:44.302Z,11.00
2019-03-24T20:55:16.159Z,10.99
2019-03-24T20:57:51.354Z,11.08
2019-03-24T21:00:33.840Z,11.24
2019-03-24T21:03:09.771Z,11.09
2019-03-24T21:05:44.878Z,11.33
2019-03-24T21:08:16.646Z,11.34
2019-03-24T21:10:49.349Z,11.34
2019-03-24T21:13:22.369Z,11.43
2019-03-24T21:15:56.321Z,11.48
2019-03-24T21:18:30.035Z,11.51
2019-03-24T21:21:03.670Z,11.54
2019-03-24T21:23:37.343Z,11.53
2019-03-24T21:26:11.476Z,11.50
2019-03-24T21:28:44.447Z,11.52
2019-03-24T21:31:16.225Z,11.46
2019-03-24T21:33:49.375Z,11.49
2019-03-24T21:36:22.584Z,11.32
2019-03-24T21:38:59.391Z,11.32
2019-03-24T21:41:33.480Z,11.23
2019-03-24T21:44:08.160Z,11.15
2019-03-24T21:46:41.895Z,11.10
2019-03-24T21:49:16.683Z,11.01
2019-03-24T21:51:48.485Z,11.20
2019-03-24T21:54:22.455Z,10.86
2019-03-24T21:56:54.603Z,10.88
2019-03-24T21:59:28.498Z,10.88
2019-03-24T22:02:01.882Z,10.95
2019-03-24T22:04:34.939Z,11.10
2019-03-24T22:07:12.777Z,11.13
2019-03-24T22:09:45.571Z,11.15
2019-03-24T22:12:19.758Z,11.23
2019-03-24T22:14:53.316Z,11.23
2019-03-24T22:17:25.665Z,11.18
2019-03-24T22:19:59.665Z,10.97
2019-03-24T22:22:33.070Z,10.73
2019-03-24T22:25:10.138Z,10.32
2019-03-24T22:27:45.378Z,10.36
2019-03-24T22:30:17.220Z,10.28
2019-03-24T22:32:51.419Z,10.57
2019-03-24T22:35:25.276Z,10.70
2019-03-24T22:38:00.493Z,10.86
2019-03-24T22:40:35.527Z,10.97
2019-03-24T22:43:07.718Z,11.01
2019-03-24T22:45:41.157Z,11.05
2019-03-24T22:48:15.153Z,11.09
2019-03-24T22:50:47.697Z,11.04
2019-03-24T22:53:19.673Z,11.12
2019-03-24T22:55:54.594Z,11.14
2019-03-24T22:58:26.379Z,11.20
2019-03-24T23:00:59.799Z,11.00
2019-03-24T23:03:31.725Z,11.00
2019-03-24T23:06:06.109Z,11.03
2019-03-24T23:08:39.382Z,11.01
2019-03-24T23:11:13.948Z,10.65
2019-03-24T23:13:47.175Z,10.26
2019-03-24T23:16:19.788Z,10.15
2019-03-24T23:18:52.998Z,10.32
2019-03-24T23:21:27.198Z,10.39
2019-03-24T23:24:01.994Z,10.56
2019-03-24T23:26:34.974Z,10.56
2019-03-24T23:29:08.004Z,10.55
2019-03-24T23:31:42.205Z,10.61
2019-03-24T23:34:15.848Z,10.67
2019-03-24T23:36:49.928Z,10.79
2019-03-24T23:39:22.956Z,10.66
2019-03-24T23:41:54.919Z,10.55
2019-03-24T23:44:28.884Z,10.44
2019-03-24T23:47:03.238Z,10.60
2019-03-24T23:49:37.726Z,10.59
2019-03-24T23:52:10.138Z,10.49
2019-03-24T23:54:42.083Z,10.53
2019-03-24T23:57:14.080Z,10.57
2019-03-24T23:59:47.061Z,10.60
